Mansfield Hollow, Connecticut
Current Conditions -  °F | °C
As of 9:52 AM on Saturday 20 Dec 2014 (Local Time) from KIJD Reporting Station
Overcast Overcast  
Wind Chill: 26°   Ceiling: 2800
Heat Index: 31°   Visibility: 10mi
Dew Point: 21°   Wind: 5mph
Humidity: 67%   Direction: 10°N
Pressure: 30.28"   Gusts: NA
Location:  41.7742°N, 72.196°W
Report Text: KIJD 201452Z AUTO 01004KT 10SM OVC028 M01/M06 A3028 RMK AO2 SLP255 T10061061 53006
Loading
Personal Weather Stations






























Interactive Weather Map New forecast layout! Learn more

10-Day Weather Forecast

Advertisements
Track Severe Weather on mobile